createdAt,value
2017-09-15T00:00:03.606Z,66.82
2017-09-15T00:00:44.060Z,66.52
2017-09-15T00:01:24.499Z,66.82
2017-09-15T00:02:04.935Z,66.82
2017-09-15T00:02:45.382Z,66.62
2017-09-15T00:03:25.831Z,66.72
2017-09-15T00:04:06.278Z,66.72
2017-09-15T00:04:46.722Z,66.72
2017-09-15T00:05:27.170Z,66.62
2017-09-15T00:06:07.612Z,66.62
2017-09-15T00:06:48.069Z,66.72
2017-09-15T00:07:28.504Z,66.52
2017-09-15T00:08:08.953Z,66.62
2017-09-15T00:08:49.399Z,66.52
2017-09-15T00:09:29.831Z,66.52
2017-09-15T00:10:10.274Z,66.72
2017-09-15T00:10:50.739Z,66.82
2017-09-15T00:11:31.167Z,66.82
2017-09-15T00:12:11.624Z,66.91
2017-09-15T00:12:52.068Z,67.4
2017-09-15T00:13:32.512Z,66.72
2017-09-15T00:14:12.969Z,66.91
2017-09-15T00:14:53.410Z,66.91
2017-09-15T00:15:33.856Z,67.2
2017-09-15T00:16:14.302Z,67.2
2017-09-15T00:16:54.753Z,66.91
2017-09-15T00:17:35.217Z,67.1
2017-09-15T00:18:15.676Z,67.2
2017-09-15T00:18:56.127Z,67.1
2017-09-15T00:19:36.576Z,66.91
2017-09-15T00:20:17.025Z,67
2017-09-15T00:20:57.472Z,67
2017-09-15T00:21:37.921Z,66.91
2017-09-15T00:22:18.370Z,66.82
2017-09-15T00:22:58.818Z,66.88
2017-09-15T00:23:39.265Z,66.91
2017-09-15T00:24:19.705Z,67
2017-09-15T00:25:00.151Z,67
2017-09-15T00:25:40.597Z,66.91
2017-09-15T00:26:21.046Z,67.1
2017-09-15T00:27:01.499Z,66.82
2017-09-15T00:27:41.949Z,67.07
2017-09-15T00:28:22.403Z,67.1
2017-09-15T00:29:02.848Z,67.1
2017-09-15T00:29:43.288Z,66.91
2017-09-15T00:30:23.737Z,67.2
2017-09-15T00:31:04.186Z,67
2017-09-15T00:31:44.630Z,67
2017-09-15T00:32:25.068Z,67
2017-09-15T00:33:05.519Z,67.2
2017-09-15T00:33:45.959Z,67.1
2017-09-15T00:34:26.407Z,67.2
2017-09-15T00:35:06.856Z,67.2
2017-09-15T00:35:47.304Z,67.4
2017-09-15T00:36:27.749Z,67.36
2017-09-15T00:37:08.201Z,67.58
2017-09-15T00:37:48.655Z,67.1
2017-09-15T00:38:29.110Z,67.58
2017-09-15T00:39:09.551Z,67.58
2017-09-15T00:39:50.000Z,67.58
2017-09-15T00:40:30.442Z,67.3
2017-09-15T00:41:10.890Z,67.3
2017-09-15T00:41:51.339Z,67.2
2017-09-15T00:42:31.785Z,67.3
2017-09-15T00:43:12.233Z,67.16
2017-09-15T00:43:52.689Z,67.58
2017-09-15T00:44:33.128Z,67.58
2017-09-15T00:45:13.574Z,67.3
2017-09-15T00:45:54.023Z,67.4
2017-09-15T00:46:34.470Z,67.46
2017-09-15T00:47:14.922Z,67.49
2017-09-15T00:47:55.377Z,67.58
2017-09-15T00:48:35.827Z,67.36
2017-09-15T00:49:16.272Z,67.49
2017-09-15T00:49:56.722Z,67.49
2017-09-15T00:50:37.169Z,67.26
2017-09-15T00:51:17.623Z,67.49
2017-09-15T00:51:58.070Z,67.2
2017-09-15T00:52:38.513Z,67.2
2017-09-15T00:53:18.959Z,67.16
2017-09-15T00:53:59.405Z,67.4
2017-09-15T00:54:39.857Z,67.3
2017-09-15T00:55:20.300Z,67.4
2017-09-15T00:56:00.744Z,67.4
2017-09-15T00:56:41.199Z,67.4
2017-09-15T00:57:21.647Z,67.3
2017-09-15T00:58:02.094Z,67.3
2017-09-15T00:58:42.552Z,67.3
2017-09-15T00:59:22.988Z,67.4
2017-09-15T01:00:03.432Z,67.78
2017-09-15T01:00:43.879Z,67.78
2017-09-15T01:01:24.323Z,67.36
2017-09-15T01:02:04.770Z,67.49
2017-09-15T01:02:45.228Z,67.68
2017-09-15T01:03:25.675Z,67.36
2017-09-15T01:04:06.123Z,67.78
2017-09-15T01:04:46.574Z,67.78
2017-09-15T01:05:27.024Z,67.78
2017-09-15T01:06:07.472Z,67.88
2017-09-15T01:06:47.921Z,67.88
2017-09-15T01:07:28.369Z,67.78
2017-09-15T01:08:08.817Z,67.97
2017-09-15T01:08:49.267Z,67.74
2017-09-15T01:09:29.713Z,67.58
2017-09-15T01:10:10.165Z,67.78
2017-09-15T01:10:50.616Z,67.88
2017-09-15T01:11:31.057Z,67.68
2017-09-15T01:12:11.494Z,67.68
2017-09-15T01:12:51.942Z,67.68
2017-09-15T01:13:32.375Z,67.68
2017-09-15T01:14:12.823Z,67.78
2017-09-15T01:14:53.266Z,67.68
2017-09-15T01:15:33.723Z,67.68
2017-09-15T01:16:14.168Z,67.78
2017-09-15T01:16:54.613Z,67.58
2017-09-15T01:17:35.060Z,67.78
2017-09-15T01:18:15.507Z,67.68
2017-09-15T01:18:55.967Z,67.88
2017-09-15T01:19:36.396Z,67.88
2017-09-15T01:20:16.855Z,67.68
2017-09-15T01:20:57.292Z,67.58
2017-09-15T01:21:37.737Z,67.58
2017-09-15T01:22:18.200Z,67.68
2017-09-15T01:22:58.651Z,67.88
2017-09-15T01:23:39.100Z,67.88
2017-09-15T01:24:19.551Z,67.78
2017-09-15T01:24:59.982Z,67.88
2017-09-15T01:25:40.434Z,67.88
2017-09-15T01:26:20.883Z,67.78
2017-09-15T01:27:01.381Z,67.88
2017-09-15T01:27:41.828Z,67.49
2017-09-15T01:28:22.277Z,67.88
2017-09-15T01:29:02.727Z,67.88
2017-09-15T01:29:43.199Z,67.49
2017-09-15T01:30:23.633Z,68.16
2017-09-15T01:31:04.081Z,67.88
2017-09-15T01:31:44.521Z,67.88
2017-09-15T01:32:24.971Z,67.97
2017-09-15T01:33:05.416Z,67.97
2017-09-15T01:33:45.865Z,67.97
2017-09-15T01:34:26.316Z,67.97
2017-09-15T01:35:06.762Z,67.88
2017-09-15T01:35:47.212Z,67.78
2017-09-15T01:36:27.669Z,67.88
2017-09-15T01:37:08.101Z,67.88
2017-09-15T01:37:48.547Z,67.88
2017-09-15T01:38:28.991Z,67.58
2017-09-15T01:39:09.439Z,67.88
2017-09-15T01:39:49.891Z,68.16
2017-09-15T01:40:30.345Z,67.88
2017-09-15T01:41:10.792Z,67.88
2017-09-15T01:41:51.239Z,68.16
2017-09-15T01:42:31.691Z,67.88
2017-09-15T01:43:12.140Z,67.49
2017-09-15T01:43:52.593Z,68.07
2017-09-15T01:44:33.041Z,67.88
2017-09-15T01:45:13.492Z,67.49
2017-09-15T01:45:53.939Z,67.58
2017-09-15T01:46:34.407Z,67.58
2017-09-15T01:47:14.859Z,67.49
2017-09-15T01:47:55.326Z,67.88
2017-09-15T01:48:35.802Z,67.88
2017-09-15T01:49:16.247Z,67.88
2017-09-15T01:49:56.691Z,67.88
2017-09-15T01:50:37.158Z,67.88
2017-09-15T01:51:17.606Z,67.97
2017-09-15T01:51:58.073Z,67.88
2017-09-15T01:52:38.527Z,67.97
2017-09-15T01:53:18.975Z,68.07
2017-09-15T01:53:59.442Z,67.88
2017-09-15T01:54:39.898Z,67.68
2017-09-15T01:55:20.334Z,67.97
2017-09-15T01:56:00.794Z,67.78
2017-09-15T01:56:41.257Z,67.68
2017-09-15T01:57:21.703Z,67.68
2017-09-15T01:58:02.154Z,67.78
2017-09-15T01:58:42.611Z,67.78
2017-09-15T01:59:23.052Z,67.78
2017-09-15T02:00:03.495Z,67.88
2017-09-15T02:00:43.948Z,67.88
2017-09-15T02:01:24.399Z,67.88
2017-09-15T02:02:04.850Z,67.88
2017-09-15T02:02:45.305Z,67.88
2017-09-15T02:03:25.751Z,67.88
2017-09-15T02:04:06.205Z,68.07
2017-09-15T02:04:46.650Z,67.68
2017-09-15T02:05:27.096Z,67.78
2017-09-15T02:06:07.545Z,67.97
2017-09-15T02:06:47.993Z,67.88
2017-09-15T02:07:28.442Z,67.68
2017-09-15T02:08:08.890Z,67.88
2017-09-15T02:08:49.338Z,68.16
2017-09-15T02:09:29.786Z,67.78
2017-09-15T02:10:10.228Z,68.16
2017-09-15T02:10:50.677Z,67.68
2017-09-15T02:11:31.124Z,67.68
2017-09-15T02:12:11.567Z,68.07
2017-09-15T02:12:52.005Z,67.78
2017-09-15T02:13:32.454Z,67.58
2017-09-15T02:14:12.903Z,67.97
2017-09-15T02:14:53.351Z,67.78
2017-09-15T02:15:33.798Z,67.78
2017-09-15T02:16:14.245Z,67.78
2017-09-15T02:16:54.722Z,68.35
2017-09-15T02:17:35.148Z,67.58
2017-09-15T02:18:15.592Z,67.88
2017-09-15T02:18:56.041Z,67.78
2017-09-15T02:19:36.495Z,68.07
2017-09-15T02:20:16.946Z,68.16
2017-09-15T02:20:57.387Z,67.68
2017-09-15T02:21:37.834Z,67.78
2017-09-15T02:22:18.290Z,67.78
2017-09-15T02:22:58.739Z,67.68
2017-09-15T02:23:39.186Z,67.78
2017-09-15T02:24:19.642Z,68.07
2017-09-15T02:25:00.091Z,67.78
2017-09-15T02:25:40.536Z,68.35
2017-09-15T02:26:20.991Z,68.35
2017-09-15T02:27:01.440Z,68.26
2017-09-15T02:27:41.887Z,68.35
2017-09-15T02:28:22.335Z,68.35
2017-09-15T02:29:02.788Z,67.97
2017-09-15T02:29:43.224Z,68.07
2017-09-15T02:30:23.664Z,68.07
2017-09-15T02:31:04.109Z,68.07
2017-09-15T02:31:44.562Z,68.07
2017-09-15T02:32:25.007Z,68.07
2017-09-15T02:33:05.480Z,68.07
2017-09-15T02:33:45.929Z,68.26
2017-09-15T02:34:26.378Z,67.97
2017-09-15T02:35:06.826Z,67.88
2017-09-15T02:35:47.274Z,68.35
2017-09-15T02:36:27.716Z,68.26
2017-09-15T02:37:08.161Z,68.35
2017-09-15T02:37:48.601Z,68.16
2017-09-15T02:38:29.044Z,68.16
2017-09-15T02:39:09.488Z,68.07
2017-09-15T02:39:49.940Z,68.26
2017-09-15T02:40:30.383Z,68.26
2017-09-15T02:41:10.834Z,68.16
2017-09-15T02:41:51.280Z,68.16
2017-09-15T02:42:31.729Z,68.16
2017-09-15T02:43:12.180Z,67.88
2017-09-15T02:43:52.626Z,68.07
2017-09-15T02:44:33.078Z,68.16
2017-09-15T02:45:13.526Z,68.07
2017-09-15T02:45:53.969Z,68.26
2017-09-15T02:46:34.417Z,68.16
2017-09-15T02:47:14.864Z,68.26
2017-09-15T02:47:55.337Z,67.88
2017-09-15T02:48:35.794Z,68.16
2017-09-15T02:49:16.238Z,68.32
2017-09-15T02:49:56.676Z,68.26
2017-09-15T02:50:37.124Z,67.97
2017-09-15T02:51:17.562Z,68.07
2017-09-15T02:51:58.086Z,68.26
2017-09-15T02:52:38.534Z,68.16
2017-09-15T02:53:18.990Z,68.35
2017-09-15T02:53:59.440Z,68.04
2017-09-15T02:54:39.898Z,68.35
2017-09-15T02:55:20.355Z,68.26
2017-09-15T02:56:00.800Z,68.07
2017-09-15T02:56:41.251Z,68.26
2017-09-15T02:57:21.699Z,68.26
2017-09-15T02:58:02.146Z,68.23
2017-09-15T02:58:42.589Z,68.32
2017-09-15T02:59:23.037Z,68.26
2017-09-15T03:00:03.486Z,68.35
2017-09-15T03:00:43.934Z,68.16
2017-09-15T03:01:24.381Z,68.35
2017-09-15T03:02:04.816Z,68.32
2017-09-15T03:02:45.261Z,68.35
2017-09-15T03:03:25.718Z,68.35
2017-09-15T03:04:06.164Z,68.35
2017-09-15T03:04:46.603Z,68.04
2017-09-15T03:05:27.047Z,68.26
2017-09-15T03:06:07.494Z,68.07
2017-09-15T03:06:47.951Z,68.16
2017-09-15T03:07:28.403Z,68.13
2017-09-15T03:08:08.857Z,68.16
2017-09-15T03:08:49.312Z,68.16
2017-09-15T03:09:29.763Z,68.23
2017-09-15T03:10:10.213Z,68.13
2017-09-15T03:10:50.657Z,68.16
2017-09-15T03:11:31.106Z,68.16
2017-09-15T03:12:11.551Z,68.13
2017-09-15T03:12:52.006Z,68.04
2017-09-15T03:13:32.457Z,67.94
2017-09-15T03:14:12.903Z,68.07
2017-09-15T03:14:53.362Z,68.04
2017-09-15T03:15:33.813Z,68.04
2017-09-15T03:16:14.252Z,68.35
2017-09-15T03:16:54.698Z,68.07
2017-09-15T03:17:35.143Z,67.94
2017-09-15T03:18:15.601Z,68.16
2017-09-15T03:18:56.049Z,68.04
2017-09-15T03:19:36.509Z,67.97
2017-09-15T03:20:16.958Z,68.07
2017-09-15T03:20:57.413Z,68.16
2017-09-15T03:21:37.860Z,68.07
2017-09-15T03:22:18.306Z,68.04
2017-09-15T03:22:58.754Z,68.04
2017-09-15T03:23:39.206Z,68.07
2017-09-15T03:24:19.662Z,68.07
2017-09-15T03:25:00.104Z,68.07
2017-09-15T03:25:40.566Z,68.23
2017-09-15T03:26:21.016Z,68.16
2017-09-15T03:27:01.463Z,67.94
2017-09-15T03:27:41.908Z,68.23
2017-09-15T03:28:22.360Z,68.16
2017-09-15T03:29:02.818Z,68.16
2017-09-15T03:29:43.270Z,68.13
2017-09-15T03:30:23.727Z,68.13
2017-09-15T03:31:04.169Z,68.16
2017-09-15T03:31:44.620Z,68.13
2017-09-15T03:32:25.082Z,68.07
2017-09-15T03:33:05.531Z,67.94
2017-09-15T03:33:45.974Z,68.23
2017-09-15T03:34:26.425Z,68.07
2017-09-15T03:35:06.872Z,68.26
2017-09-15T03:35:47.312Z,68.26
2017-09-15T03:36:27.762Z,68.23
2017-09-15T03:37:08.209Z,68.04
2017-09-15T03:37:48.650Z,67.88
2017-09-15T03:38:29.096Z,67.88
2017-09-15T03:39:09.544Z,67.97
2017-09-15T03:39:49.989Z,68.04
2017-09-15T03:40:30.728Z,67.94
2017-09-15T03:41:11.169Z,68.23
2017-09-15T03:41:51.628Z,68.23
2017-09-15T03:42:32.083Z,67.84
2017-09-15T03:43:12.536Z,68.04
2017-09-15T03:43:53.057Z,68.04
2017-09-15T03:44:33.496Z,67.97
2017-09-15T03:45:13.942Z,68.04
2017-09-15T03:45:54.392Z,68.16
2017-09-15T03:46:34.844Z,68.13
2017-09-15T03:47:15.300Z,68.16
2017-09-15T03:47:55.741Z,68.13
2017-09-15T03:48:36.198Z,68.26
2017-09-15T03:49:16.674Z,68.13
2017-09-15T03:49:57.101Z,68.26
2017-09-15T03:50:37.544Z,68.23
2017-09-15T03:51:17.999Z,68.32
2017-09-15T03:51:58.455Z,67.88
2017-09-15T03:52:38.892Z,68.13
2017-09-15T03:53:19.352Z,68.23
2017-09-15T03:53:59.801Z,68.26
2017-09-15T03:54:40.254Z,68.32
2017-09-15T03:55:20.700Z,68.23
2017-09-15T03:56:01.147Z,68.32
2017-09-15T03:56:41.639Z,68.45
2017-09-15T03:57:22.091Z,68.42
2017-09-15T03:58:02.545Z,68.32
2017-09-15T03:58:43.004Z,68.35
2017-09-15T03:59:23.448Z,68.35
2017-09-15T04:00:03.887Z,68.32
2017-09-15T04:00:44.338Z,68.23
2017-09-15T04:01:24.811Z,68.42
2017-09-15T04:02:05.242Z,68.23
2017-09-15T04:02:45.690Z,68.35
2017-09-15T04:03:26.141Z,68.16
2017-09-15T04:04:06.590Z,68.26
2017-09-15T04:04:47.034Z,68.26
2017-09-15T04:05:27.485Z,68.16
2017-09-15T04:06:07.929Z,68.26
2017-09-15T04:06:48.384Z,67.97
2017-09-15T04:07:28.833Z,67.94
2017-09-15T04:08:09.284Z,68.16
2017-09-15T04:08:49.729Z,68.07
2017-09-15T04:09:30.182Z,68.26
2017-09-15T04:10:10.617Z,68.16
2017-09-15T04:10:51.060Z,68.16
2017-09-15T04:11:31.512Z,68.07
2017-09-15T04:12:11.958Z,68.16
2017-09-15T04:12:52.407Z,68.16
2017-09-15T04:13:32.853Z,68.16
2017-09-15T04:14:13.291Z,68.35
2017-09-15T04:14:53.739Z,68.35
2017-09-15T04:15:34.190Z,68.26
2017-09-15T04:16:14.639Z,67.97
2017-09-15T04:16:55.091Z,68.16
2017-09-15T04:17:35.539Z,68.07
2017-09-15T04:18:15.990Z,68.07
2017-09-15T04:18:56.438Z,67.97
2017-09-15T04:19:36.884Z,68.07
2017-09-15T04:20:17.331Z,68.07
2017-09-15T04:20:57.779Z,68.26
2017-09-15T04:21:38.230Z,68.45
2017-09-15T04:22:18.675Z,68.35
2017-09-15T04:22:59.124Z,68.26
2017-09-15T04:23:39.572Z,67.68
2017-09-15T04:24:20.024Z,67.58
2017-09-15T04:25:00.468Z,67.88
2017-09-15T04:25:40.916Z,67.78
2017-09-15T04:26:21.366Z,67.88
2017-09-15T04:27:01.819Z,67.68
2017-09-15T04:27:42.266Z,67.58
2017-09-15T04:28:22.716Z,67.71
2017-09-15T04:29:03.164Z,67.58
2017-09-15T04:29:43.621Z,67.58
2017-09-15T04:30:24.070Z,67.62
2017-09-15T04:31:04.516Z,67.58
2017-09-15T04:31:44.961Z,67.68
2017-09-15T04:32:25.418Z,67.62
2017-09-15T04:33:05.894Z,67.78
2017-09-15T04:33:46.336Z,67.97
2017-09-15T04:34:26.786Z,67.71
2017-09-15T04:35:07.236Z,67.81
2017-09-15T04:35:47.676Z,68.16
2017-09-15T04:36:28.127Z,68.01
2017-09-15T04:37:08.588Z,67.78
2017-09-15T04:37:49.038Z,67.81
2017-09-15T04:38:29.490Z,67.81
2017-09-15T04:39:09.941Z,67.71
2017-09-15T04:39:50.401Z,68.19
2017-09-15T04:40:30.838Z,67.78
2017-09-15T04:41:11.290Z,67.81
2017-09-15T04:41:51.739Z,67.68
2017-09-15T04:42:32.186Z,67.81
2017-09-15T04:43:12.641Z,68.49
2017-09-15T04:43:53.124Z,68.01
2017-09-15T04:44:33.556Z,67.58
2017-09-15T04:45:14.030Z,67.71
2017-09-15T04:45:54.464Z,67.71
2017-09-15T04:46:34.907Z,67.71
2017-09-15T04:47:15.357Z,67.81
2017-09-15T04:47:55.815Z,67.81
2017-09-15T04:48:36.260Z,67.81
2017-09-15T04:49:16.729Z,67.97
2017-09-15T04:49:57.150Z,67.68
2017-09-15T04:50:37.596Z,67.58
2017-09-15T04:51:18.038Z,67.78
2017-09-15T04:51:58.477Z,67.78
2017-09-15T04:52:38.922Z,67.91
2017-09-15T04:53:19.368Z,67.81
2017-09-15T04:53:59.806Z,67.81
2017-09-15T04:54:40.250Z,67.58
2017-09-15T04:55:20.703Z,67.71
2017-09-15T04:56:01.143Z,67.58
2017-09-15T04:56:41.598Z,67.78
2017-09-15T04:57:22.046Z,67.62
2017-09-15T04:58:02.489Z,68.39
2017-09-15T04:58:42.936Z,68.39
2017-09-15T04:59:23.367Z,68.35
2017-09-15T05:00:03.802Z,68.45
2017-09-15T05:00:44.249Z,68.19
2017-09-15T05:01:24.694Z,67.91
2017-09-15T05:02:05.144Z,68.1
2017-09-15T05:02:45.593Z,68.35
2017-09-15T05:03:26.040Z,68.07
2017-09-15T05:04:06.493Z,68.07
2017-09-15T05:04:46.922Z,68.1
2017-09-15T05:05:27.397Z,68.29
2017-09-15T05:06:07.816Z,68.07
2017-09-15T05:06:48.299Z,68.16
2017-09-15T05:07:28.747Z,67.97
2017-09-15T05:08:09.203Z,68.07
2017-09-15T05:08:49.643Z,68.19
2017-09-15T05:09:30.097Z,68.07
2017-09-15T05:10:10.563Z,67.88
2017-09-15T05:10:50.994Z,68.26
2017-09-15T05:11:31.440Z,68.19
2017-09-15T05:12:11.911Z,68.16
2017-09-15T05:12:52.362Z,68.26
2017-09-15T05:13:32.806Z,67.88
2017-09-15T05:15:45.642Z,68.35
2017-09-15T05:16:26.076Z,68.16
2017-09-15T05:17:06.523Z,68.26
2017-09-15T05:17:46.966Z,68.26
2017-09-15T05:18:27.415Z,68.26
2017-09-15T05:19:07.917Z,67.88
2017-09-15T05:19:48.364Z,68.26
2017-09-15T05:20:28.811Z,68.35
2017-09-15T05:21:09.262Z,68.35
2017-09-15T05:21:49.718Z,68.26
2017-09-15T05:22:30.159Z,68.07
2017-09-15T05:23:10.606Z,68.16
2017-09-15T05:23:51.051Z,68.16
2017-09-15T05:24:31.503Z,68.16
2017-09-15T05:25:11.959Z,68.16
2017-09-15T05:25:52.412Z,68.16
2017-09-15T05:26:32.858Z,68.16
2017-09-15T05:27:13.378Z,68.26
2017-09-15T05:27:53.825Z,68.16
2017-09-15T05:28:34.274Z,68.26
2017-09-15T05:29:14.745Z,68.35
2017-09-15T05:29:55.388Z,68.35
2017-09-15T05:30:35.813Z,68.35
2017-09-15T05:31:16.273Z,68.35
2017-09-15T05:31:56.712Z,68.35
2017-09-15T05:32:37.156Z,68.35
2017-09-15T05:33:17.609Z,68.35
2017-09-15T05:33:58.052Z,68.35
2017-09-15T05:34:38.504Z,68.35
2017-09-15T05:35:18.949Z,68.26
2017-09-15T05:35:59.458Z,68.07
2017-09-15T05:36:39.947Z,68.35
2017-09-15T05:37:20.397Z,68.26
2017-09-15T05:38:00.851Z,68.16
2017-09-15T05:38:41.296Z,68.26
2017-09-15T05:39:21.743Z,68.26
2017-09-15T05:40:02.203Z,68.16
2017-09-15T05:40:42.639Z,68.16
2017-09-15T05:41:23.079Z,68.07
2017-09-15T05:42:03.539Z,68.07
2017-09-15T05:42:43.990Z,68.16
2017-09-15T05:43:24.430Z,68.07
2017-09-15T05:44:04.880Z,68.16
2017-09-15T05:44:45.328Z,68.26
2017-09-15T05:45:25.776Z,68.16
2017-09-15T05:46:06.227Z,68.16
2017-09-15T05:46:46.675Z,68.16
2017-09-15T05:47:27.124Z,68.16
2017-09-15T05:48:07.575Z,68.16
2017-09-15T05:48:48.021Z,68.26
2017-09-15T05:49:28.844Z,68.16
2017-09-15T05:50:09.290Z,68.16
2017-09-15T05:50:49.754Z,68.16
2017-09-15T05:53:07.611Z,68.07
2017-09-15T05:53:48.061Z,68.16
2017-09-15T05:54:28.517Z,68.07
2017-09-15T05:55:08.954Z,68.07
2017-09-15T05:55:49.402Z,68.26
2017-09-15T05:56:29.849Z,68.07
2017-09-15T05:57:10.312Z,68.16
2017-09-15T05:57:50.728Z,68.16
2017-09-15T05:58:31.162Z,68.07
2017-09-15T05:59:11.615Z,68.16
2017-09-15T05:59:52.083Z,68.16
2017-09-15T06:00:32.528Z,68.07
2017-09-15T06:01:12.979Z,68.16
2017-09-15T06:01:53.430Z,68.07
2017-09-15T06:02:33.881Z,68.16
2017-09-15T06:03:14.327Z,68.26
2017-09-15T06:03:54.773Z,68.26
2017-09-15T06:04:35.248Z,68.16
2017-09-15T06:05:15.679Z,68.26
2017-09-15T06:05:56.132Z,68.16
2017-09-15T06:06:36.579Z,68.16
2017-09-15T06:07:17.033Z,68.26
2017-09-15T06:07:57.482Z,68.26
2017-09-15T06:08:37.941Z,68.16
2017-09-15T06:09:18.381Z,68.26
2017-09-15T06:09:58.828Z,68.16
2017-09-15T06:10:39.284Z,68.07
2017-09-15T06:11:19.735Z,68.26
2017-09-15T06:12:00.183Z,68.19
2017-09-15T06:12:40.624Z,68.29
2017-09-15T06:13:21.065Z,68.16
2017-09-15T06:14:01.513Z,68.1
2017-09-15T06:14:41.960Z,68.16
2017-09-15T06:15:22.420Z,68.16
2017-09-15T06:16:02.870Z,68.16
2017-09-15T06:16:43.322Z,68.16
2017-09-15T06:17:23.775Z,68.26
2017-09-15T06:18:04.228Z,68.07
2017-09-15T06:18:44.674Z,68.26
2017-09-15T06:19:25.126Z,67.97
2017-09-15T06:20:05.571Z,68.16
2017-09-15T06:20:46.014Z,68.16
2017-09-15T06:21:26.460Z,68.16
2017-09-15T06:22:06.899Z,68.26
2017-09-15T06:22:47.348Z,68.16
2017-09-15T06:23:27.794Z,68.16
2017-09-15T06:24:08.242Z,68.16
2017-09-15T06:24:48.691Z,68.26
2017-09-15T06:25:29.140Z,67.97
2017-09-15T06:26:09.585Z,68.07
2017-09-15T06:26:50.034Z,68.16
2017-09-15T06:27:30.482Z,67.97
2017-09-15T06:28:10.919Z,68.07
2017-09-15T06:28:51.354Z,68.16
2017-09-15T06:29:31.799Z,67.97
2017-09-15T06:30:12.244Z,68.16
2017-09-15T06:30:52.694Z,68.16
2017-09-15T06:31:33.144Z,68.35
2017-09-15T06:32:13.589Z,68.16
2017-09-15T06:32:54.033Z,68.16
2017-09-15T06:33:34.482Z,68.26
2017-09-15T06:34:14.932Z,68.26
2017-09-15T06:34:55.378Z,68.29
2017-09-15T06:35:35.823Z,68.39
2017-09-15T06:36:16.277Z,68.16
2017-09-15T06:36:56.728Z,68.39
2017-09-15T06:37:37.178Z,68.35
2017-09-15T06:38:17.626Z,68.35
2017-09-15T06:38:58.065Z,68.29
2017-09-15T06:39:38.509Z,68.26
2017-09-15T06:40:18.952Z,68.26
2017-09-15T06:40:59.397Z,68.39
2017-09-15T06:41:39.832Z,68.26
2017-09-15T06:42:20.273Z,67.88
2017-09-15T06:43:00.722Z,68.19
2017-09-15T06:43:41.175Z,68.16
2017-09-15T06:44:21.616Z,67.78
2017-09-15T06:45:02.056Z,68.26
2017-09-15T06:45:42.504Z,68.16
2017-09-15T06:46:22.961Z,68.26
2017-09-15T06:47:03.413Z,68.16
2017-09-15T06:47:43.864Z,68.29
2017-09-15T06:48:24.316Z,68.1
2017-09-15T06:49:04.759Z,68.1
2017-09-15T06:49:45.202Z,68.26
2017-09-15T06:50:25.649Z,67.97
2017-09-15T06:51:06.102Z,68.07
2017-09-15T06:51:46.539Z,68.1
2017-09-15T06:52:26.988Z,68.01
2017-09-15T06:53:07.444Z,68.01
2017-09-15T06:53:47.893Z,68.1
2017-09-15T06:54:28.358Z,67.97
2017-09-15T06:55:08.809Z,68.19
2017-09-15T06:55:49.260Z,68.1
2017-09-15T06:56:29.696Z,67.88
2017-09-15T06:57:10.142Z,68.1
2017-09-15T06:57:50.597Z,68.1
2017-09-15T06:58:31.045Z,68.1
2017-09-15T06:59:11.494Z,68.01
2017-09-15T06:59:51.928Z,68.01
2017-09-15T07:00:32.382Z,67.97
2017-09-15T07:01:12.842Z,68.29
2017-09-15T07:01:53.359Z,68.16
2017-09-15T07:02:33.766Z,68.16
2017-09-15T07:03:15.268Z,68.1
2017-09-15T07:03:54.730Z,68.07
2017-09-15T07:04:35.156Z,68.1
2017-09-15T07:05:15.611Z,68.1
2017-09-15T07:05:56.053Z,68.1
2017-09-15T07:06:36.503Z,68.39
2017-09-15T07:07:16.951Z,68.39
2017-09-15T07:07:57.399Z,68.49
2017-09-15T07:08:37.854Z,68.49
2017-09-15T07:09:18.290Z,68.1
2017-09-15T07:09:58.723Z,68.39
2017-09-15T07:10:39.188Z,68.39
2017-09-15T07:11:19.635Z,68.39
2017-09-15T07:12:00.089Z,67.71
2017-09-15T07:12:40.533Z,68.39
2017-09-15T07:13:20.982Z,68.39
2017-09-15T07:14:01.460Z,68.01
2017-09-15T07:14:41.877Z,67.62
2017-09-15T07:15:22.332Z,68.29
2017-09-15T07:16:02.787Z,68.29
2017-09-15T07:18:15.560Z,67.71
2017-09-15T07:18:56.004Z,67.91
2017-09-15T07:19:36.456Z,67.71
2017-09-15T07:20:16.939Z,68.19
2017-09-15T07:20:57.388Z,67.71
2017-09-15T11:27:36.971Z,63.95
2017-09-15T11:28:17.417Z,63.95
2017-09-15T11:28:57.861Z,63.76
2017-09-15T11:29:38.297Z,63.95
2017-09-15T11:30:18.755Z,63.76
2017-09-15T11:30:59.191Z,63.76
2017-09-15T11:31:39.635Z,63.47
2017-09-15T11:32:20.084Z,63.56
2017-09-15T11:33:00.532Z,63.47
2017-09-15T11:33:40.981Z,63.95
2017-09-15T11:34:21.418Z,63.66
2017-09-15T11:35:01.861Z,63.95
2017-09-15T11:35:42.288Z,64.05
2017-09-15T11:36:22.733Z,63.85
2017-09-15T11:37:03.167Z,63.69
2017-09-15T11:37:43.603Z,63.76
2017-09-15T11:38:24.047Z,63.66
2017-09-15T11:39:04.500Z,63.89
2017-09-15T11:39:44.948Z,63.98
2017-09-15T11:40:25.389Z,64.24
2017-09-15T11:41:05.836Z,64.43
2017-09-15T11:41:46.272Z,63.89
2017-09-15T11:42:26.725Z,64.24
2017-09-15T11:43:07.168Z,64.37
2017-09-15T11:43:47.621Z,64.14
2017-09-15T11:44:28.064Z,64.43
2017-09-15T11:45:08.511Z,64.24
2017-09-15T11:45:48.965Z,64.34
2017-09-15T11:46:29.418Z,64.92
2017-09-15T11:47:09.862Z,64.92
2017-09-15T11:47:50.312Z,64.92
2017-09-15T11:48:30.760Z,64.92
2017-09-15T11:49:11.207Z,65.01
2017-09-15T11:49:51.660Z,64.72
2017-09-15T11:50:32.111Z,64.63
2017-09-15T11:51:12.560Z,64.82
2017-09-15T11:51:53.010Z,64.53
2017-09-15T11:52:33.465Z,64.63
2017-09-15T11:53:13.904Z,64.72
2017-09-15T11:53:54.359Z,64.63
2017-09-15T11:54:34.809Z,64.53
2017-09-15T11:55:15.298Z,64.92
2017-09-15T11:55:55.740Z,64.43
2017-09-15T11:56:36.185Z,64.24
2017-09-15T11:57:16.630Z,64.43
2017-09-15T11:57:57.079Z,64.05
2017-09-15T11:58:37.539Z,64.24
2017-09-15T11:59:17.987Z,63.79
2017-09-15T11:59:58.438Z,63.5
2017-09-15T12:00:38.893Z,63.89
2017-09-15T12:01:19.334Z,63.5
2017-09-15T12:01:59.793Z,63.69
2017-09-15T12:02:40.236Z,63.79
2017-09-15T12:03:20.687Z,63.69
2017-09-15T12:04:01.134Z,63.5
2017-09-15T12:04:41.575Z,63.5
2017-09-15T12:05:22.024Z,63.6
2017-09-15T12:06:02.472Z,63.4
2017-09-15T12:06:42.929Z,63.5
2017-09-15T12:07:23.690Z,63.5
2017-09-15T12:08:04.137Z,63.89
2017-09-15T12:08:44.582Z,63.98
2017-09-15T12:09:25.028Z,63.69
2017-09-15T12:10:05.486Z,63.5
2017-09-15T12:10:45.928Z,63.89
2017-09-15T12:11:26.373Z,63.6
2017-09-15T12:12:06.817Z,64.08
2017-09-15T12:12:47.263Z,63.89
2017-09-15T12:13:27.712Z,63.56
2017-09-15T12:14:08.168Z,63.6
2017-09-15T12:14:48.621Z,63.98
2017-09-15T12:15:29.075Z,63.6
2017-09-15T12:16:09.518Z,63.6
2017-09-15T12:16:49.969Z,63.69
2017-09-15T12:17:30.421Z,63.47
2017-09-15T12:18:10.875Z,63.47
2017-09-15T12:18:51.325Z,63.47
2017-09-15T12:19:31.769Z,63.95
2017-09-15T12:20:12.217Z,63.28
2017-09-15T12:20:52.653Z,63.85
2017-09-15T12:21:33.101Z,63.85
2017-09-15T12:22:13.547Z,64.05
2017-09-15T12:22:53.995Z,64.05
2017-09-15T12:23:34.522Z,64.05
2017-09-15T12:24:14.948Z,64.24
2017-09-15T12:24:55.390Z,64.24
2017-09-15T12:25:35.843Z,64.05
2017-09-15T12:26:16.290Z,64.05
2017-09-15T12:26:56.738Z,64.05
2017-09-15T12:27:37.190Z,64.05
2017-09-15T12:28:17.640Z,64.05
2017-09-15T12:28:58.079Z,64.05
2017-09-15T12:29:38.532Z,64.05
2017-09-15T12:30:18.982Z,64.34
2017-09-15T12:30:59.426Z,64.34
2017-09-15T12:31:39.874Z,64.05
2017-09-15T12:32:20.316Z,64.05
2017-09-15T12:33:00.792Z,64.14
2017-09-15T12:33:41.243Z,64.34
2017-09-15T12:34:21.704Z,64.43
2017-09-15T12:35:02.156Z,64.43
2017-09-15T12:35:42.602Z,63.85
2017-09-15T12:36:23.054Z,64.34
2017-09-15T12:37:03.496Z,63.95
2017-09-15T12:37:43.940Z,64.34
2017-09-15T12:38:24.393Z,64.34
2017-09-15T12:39:04.844Z,64.34
2017-09-15T12:39:45.290Z,64.43
2017-09-15T12:40:25.733Z,63.95
2017-09-15T12:41:06.187Z,64.05
2017-09-15T12:41:46.638Z,64.05
2017-09-15T12:42:27.086Z,64.14
2017-09-15T12:43:07.525Z,63.95
2017-09-15T12:43:47.985Z,64.05
2017-09-15T12:44:28.435Z,63.95
2017-09-15T12:45:08.884Z,64.53
2017-09-15T12:45:49.326Z,64.53
2017-09-15T12:46:29.768Z,64.43
2017-09-15T12:47:10.214Z,64.43
2017-09-15T12:47:50.656Z,64.53
2017-09-15T12:48:31.106Z,64.34
2017-09-15T12:49:11.558Z,64.34
2017-09-15T12:49:52.023Z,64.34
2017-09-15T12:50:32.470Z,64.24
2017-09-15T12:51:12.915Z,64.34
2017-09-15T12:51:53.365Z,64.34
2017-09-15T12:52:33.798Z,64.14
2017-09-15T12:53:14.244Z,64.72